sensor_id;sensor_type;location;lat;lon;timestamp;P1;durP1;ratioP1;P2;durP2;ratioP2
65045;SDS011;54657;52.022;5.534;2024-01-11T00:00:38;14.95;;;7.68;;
65045;SDS011;54657;52.022;5.534;2024-01-11T00:03:03;15.00;;;9.25;;
65045;SDS011;54657;52.022;5.534;2024-01-11T00:05:29;15.25;;;7.78;;
65045;SDS011;54657;52.022;5.534;2024-01-11T00:07:54;15.85;;;8.63;;
65045;SDS011;54657;52.022;5.534;2024-01-11T00:10:20;15.85;;;8.13;;
65045;SDS011;54657;52.022;5.534;2024-01-11T00:12:46;23.42;;;8.85;;
65045;SDS011;54657;52.022;5.534;2024-01-11T00:15:12;14.13;;;8.18;;
65045;SDS011;54657;52.022;5.534;2024-01-11T00:17:38;16.33;;;8.40;;
65045;SDS011;54657;52.022;5.534;2024-01-11T00:20:03;16.05;;;8.65;;
65045;SDS011;54657;52.022;5.534;2024-01-11T00:22:29;15.63;;;8.60;;
65045;SDS011;54657;52.022;5.534;2024-01-11T00:24:55;17.13;;;8.00;;
65045;SDS011;54657;52.022;5.534;2024-01-11T00:27:20;17.25;;;8.32;;
65045;SDS011;54657;52.022;5.534;2024-01-11T00:29:46;14.13;;;8.18;;
65045;SDS011;54657;52.022;5.534;2024-01-11T00:32:11;17.17;;;8.65;;
65045;SDS011;54657;52.022;5.534;2024-01-11T00:34:37;16.05;;;8.27;;
65045;SDS011;54657;52.022;5.534;2024-01-11T00:37:03;15.68;;;8.13;;
65045;SDS011;54657;52.022;5.534;2024-01-11T00:39:29;16.52;;;8.52;;
65045;SDS011;54657;52.022;5.534;2024-01-11T00:41:55;18.55;;;8.55;;
65045;SDS011;54657;52.022;5.534;2024-01-11T00:44:20;15.02;;;9.07;;
65045;SDS011;54657;52.022;5.534;2024-01-11T00:46:46;15.23;;;7.60;;
65045;SDS011;54657;52.022;5.534;2024-01-11T00:49:11;15.55;;;8.23;;
65045;SDS011;54657;52.022;5.534;2024-01-11T00:51:37;13.68;;;7.53;;
65045;SDS011;54657;52.022;5.534;2024-01-11T00:54:03;15.23;;;7.38;;
65045;SDS011;54657;52.022;5.534;2024-01-11T00:56:28;13.68;;;7.15;;
65045;SDS011;54657;52.022;5.534;2024-01-11T00:58:54;13.43;;;6.30;;
65045;SDS011;54657;52.022;5.534;2024-01-11T01:01:19;13.98;;;7.72;;
65045;SDS011;54657;52.022;5.534;2024-01-11T01:03:45;14.40;;;7.50;;
65045;SDS011;54657;52.022;5.534;2024-01-11T01:06:10;11.68;;;6.40;;
65045;SDS011;54657;52.022;5.534;2024-01-11T01:08:36;10.65;;;6.43;;
65045;SDS011;54657;52.022;5.534;2024-01-11T01:11:01;10.57;;;7.13;;
65045;SDS011;54657;52.022;5.534;2024-01-11T01:13:27;13.10;;;6.55;;
65045;SDS011;54657;52.022;5.534;2024-01-11T01:15:53;11.68;;;6.60;;
65045;SDS011;54657;52.022;5.534;2024-01-11T01:18:18;11.75;;;6.70;;
65045;SDS011;54657;52.022;5.534;2024-01-11T01:20:44;12.77;;;7.38;;
65045;SDS011;54657;52.022;5.534;2024-01-11T01:23:09;11.75;;;7.00;;
65045;SDS011;54657;52.022;5.534;2024-01-11T01:25:35;12.20;;;7.15;;
65045;SDS011;54657;52.022;5.534;2024-01-11T01:28:00;12.00;;;6.70;;
65045;SDS011;54657;52.022;5.534;2024-01-11T01:30:26;15.15;;;6.80;;
65045;SDS011;54657;52.022;5.534;2024-01-11T01:32:52;14.13;;;7.00;;
65045;SDS011;54657;52.022;5.534;2024-01-11T01:35:18;11.63;;;6.82;;
65045;SDS011;54657;52.022;5.534;2024-01-11T01:37:44;18.38;;;9.05;;
65045;SDS011;54657;52.022;5.534;2024-01-11T01:40:10;15.02;;;8.68;;
65045;SDS011;54657;52.022;5.534;2024-01-11T01:42:40;12.13;;;6.85;;
65045;SDS011;54657;52.022;5.534;2024-01-11T01:45:10;13.50;;;7.20;;
65045;SDS011;54657;52.022;5.534;2024-01-11T01:47:36;13.65;;;7.60;;
65045;SDS011;54657;52.022;5.534;2024-01-11T01:50:03;15.68;;;7.07;;
65045;SDS011;54657;52.022;5.534;2024-01-11T01:52:29;13.65;;;6.90;;
65045;SDS011;54657;52.022;5.534;2024-01-11T01:54:56;14.95;;;7.43;;
65045;SDS011;54657;52.022;5.534;2024-01-11T01:57:23;14.45;;;7.25;;
65045;SDS011;54657;52.022;5.534;2024-01-11T01:59:50;13.20;;;7.40;;
65045;SDS011;54657;52.022;5.534;2024-01-11T02:02:17;16.05;;;7.63;;
65045;SDS011;54657;52.022;5.534;2024-01-11T02:04:44;14.50;;;7.32;;
65045;SDS011;54657;52.022;5.534;2024-01-11T02:07:10;14.55;;;7.57;;
65045;SDS011;54657;52.022;5.534;2024-01-11T02:09:36;12.27;;;7.15;;
65045;SDS011;54657;52.022;5.534;2024-01-11T02:12:02;12.70;;;7.35;;
65045;SDS011;54657;52.022;5.534;2024-01-11T02:14:28;15.35;;;7.70;;
65045;SDS011;54657;52.022;5.534;2024-01-11T02:16:54;13.85;;;7.68;;
65045;SDS011;54657;52.022;5.534;2024-01-11T02:19:19;14.38;;;7.03;;
65045;SDS011;54657;52.022;5.534;2024-01-11T02:21:46;13.90;;;6.32;;
65045;SDS011;54657;52.022;5.534;2024-01-11T02:24:13;14.23;;;7.53;;
65045;SDS011;54657;52.022;5.534;2024-01-11T02:29:25;12.50;;;6.57;;
65045;SDS011;54657;52.022;5.534;2024-01-11T02:31:51;13.57;;;6.80;;
65045;SDS011;54657;52.022;5.534;2024-01-11T02:34:16;12.25;;;6.70;;
65045;SDS011;54657;52.022;5.534;2024-01-11T02:36:43;14.10;;;6.80;;
65045;SDS011;54657;52.022;5.534;2024-01-11T02:39:09;13.50;;;7.38;;
65045;SDS011;54657;52.022;5.534;2024-01-11T02:41:35;14.65;;;7.55;;
65045;SDS011;54657;52.022;5.534;2024-01-11T02:44:02;11.88;;;6.68;;
65045;SDS011;54657;52.022;5.534;2024-01-11T02:46:28;14.50;;;6.78;;
65045;SDS011;54657;52.022;5.534;2024-01-11T02:48:55;13.38;;;7.47;;
65045;SDS011;54657;52.022;5.534;2024-01-11T02:51:20;13.45;;;7.57;;
65045;SDS011;54657;52.022;5.534;2024-01-11T02:53:46;14.13;;;7.30;;
65045;SDS011;54657;52.022;5.534;2024-01-11T02:56:11;13.30;;;6.93;;
65045;SDS011;54657;52.022;5.534;2024-01-11T02:58:37;11.15;;;6.13;;
65045;SDS011;54657;52.022;5.534;2024-01-11T03:01:02;12.20;;;6.38;;
65045;SDS011;54657;52.022;5.534;2024-01-11T03:03:28;15.07;;;7.35;;
65045;SDS011;54657;52.022;5.534;2024-01-11T03:05:54;12.77;;;6.70;;
65045;SDS011;54657;52.022;5.534;2024-01-11T03:08:19;16.48;;;7.78;;
65045;SDS011;54657;52.022;5.534;2024-01-11T03:10:45;15.57;;;6.38;;
65045;SDS011;54657;52.022;5.534;2024-01-11T03:13:10;12.32;;;6.38;;
65045;SDS011;54657;52.022;5.534;2024-01-11T03:15:37;16.25;;;7.43;;
65045;SDS011;54657;52.022;5.534;2024-01-11T03:18:03;10.45;;;6.63;;
65045;SDS011;54657;52.022;5.534;2024-01-11T03:20:29;14.88;;;7.00;;
65045;SDS011;54657;52.022;5.534;2024-01-11T03:22:54;12.80;;;6.80;;
65045;SDS011;54657;52.022;5.534;2024-01-11T03:25:20;13.32;;;6.75;;
65045;SDS011;54657;52.022;5.534;2024-01-11T03:27:46;12.55;;;7.65;;
65045;SDS011;54657;52.022;5.534;2024-01-11T03:30:11;13.93;;;6.90;;
65045;SDS011;54657;52.022;5.534;2024-01-11T03:32:37;17.25;;;7.00;;
65045;SDS011;54657;52.022;5.534;2024-01-11T03:35:04;13.00;;;6.43;;
65045;SDS011;54657;52.022;5.534;2024-01-11T03:37:32;13.50;;;6.72;;
65045;SDS011;54657;52.022;5.534;2024-01-11T03:39:57;15.20;;;7.50;;
65045;SDS011;54657;52.022;5.534;2024-01-11T03:42:23;12.05;;;7.35;;
65045;SDS011;54657;52.022;5.534;2024-01-11T03:44:49;12.88;;;7.00;;
65045;SDS011;54657;52.022;5.534;2024-01-11T03:47:15;13.13;;;7.20;;
65045;SDS011;54657;52.022;5.534;2024-01-11T03:49:40;14.00;;;7.32;;
65045;SDS011;54657;52.022;5.534;2024-01-11T03:52:06;13.18;;;7.30;;
65045;SDS011;54657;52.022;5.534;2024-01-11T03:54:31;14.90;;;6.78;;
65045;SDS011;54657;52.022;5.534;2024-01-11T03:56:57;14.70;;;7.78;;
65045;SDS011;54657;52.022;5.534;2024-01-11T03:59:22;13.13;;;7.45;;
65045;SDS011;54657;52.022;5.534;2024-01-11T04:01:48;12.77;;;6.97;;
65045;SDS011;54657;52.022;5.534;2024-01-11T04:04:13;15.82;;;7.97;;
65045;SDS011;54657;52.022;5.534;2024-01-11T04:06:39;13.32;;;7.38;;
65045;SDS011;54657;52.022;5.534;2024-01-11T04:09:05;13.95;;;7.45;;
65045;SDS011;54657;52.022;5.534;2024-01-11T04:11:30;14.02;;;8.10;;
65045;SDS011;54657;52.022;5.534;2024-01-11T04:13:56;16.27;;;7.50;;
65045;SDS011;54657;52.022;5.534;2024-01-11T04:16:21;18.33;;;8.30;;
65045;SDS011;54657;52.022;5.534;2024-01-11T04:18:47;16.65;;;8.02;;
65045;SDS011;54657;52.022;5.534;2024-01-11T04:21:25;18.05;;;8.85;;
65045;SDS011;54657;52.022;5.534;2024-01-11T04:23:55;15.82;;;8.23;;
65045;SDS011;54657;52.022;5.534;2024-01-11T04:26:21;12.82;;;7.93;;
65045;SDS011;54657;52.022;5.534;2024-01-11T04:28:47;15.85;;;8.25;;
65045;SDS011;54657;52.022;5.534;2024-01-11T04:31:13;15.52;;;8.57;;
65045;SDS011;54657;52.022;5.534;2024-01-11T04:33:40;18.45;;;8.45;;
65045;SDS011;54657;52.022;5.534;2024-01-11T04:36:06;15.50;;;8.20;;
65045;SDS011;54657;52.022;5.534;2024-01-11T04:38:33;17.08;;;9.07;;
65045;SDS011;54657;52.022;5.534;2024-01-11T04:40:58;15.73;;;8.48;;
65045;SDS011;54657;52.022;5.534;2024-01-11T04:43:24;14.73;;;8.07;;
65045;SDS011;54657;52.022;5.534;2024-01-11T04:45:49;14.82;;;8.23;;
65045;SDS011;54657;52.022;5.534;2024-01-11T04:48:16;13.95;;;8.68;;
65045;SDS011;54657;52.022;5.534;2024-01-11T04:50:41;18.00;;;9.00;;
65045;SDS011;54657;52.022;5.534;2024-01-11T04:53:07;18.35;;;9.30;;
65045;SDS011;54657;52.022;5.534;2024-01-11T04:55:32;19.48;;;9.85;;
65045;SDS011;54657;52.022;5.534;2024-01-11T04:57:58;18.38;;;9.40;;
65045;SDS011;54657;52.022;5.534;2024-01-11T05:00:23;21.60;;;9.90;;
65045;SDS011;54657;52.022;5.534;2024-01-11T05:02:49;22.67;;;9.50;;
65045;SDS011;54657;52.022;5.534;2024-01-11T05:05:15;18.38;;;10.95;;
65045;SDS011;54657;52.022;5.534;2024-01-11T05:07:40;17.85;;;9.55;;
65045;SDS011;54657;52.022;5.534;2024-01-11T05:10:06;18.83;;;10.10;;
65045;SDS011;54657;52.022;5.534;2024-01-11T05:12:32;21.67;;;9.35;;
65045;SDS011;54657;52.022;5.534;2024-01-11T05:14:58;18.73;;;10.20;;
65045;SDS011;54657;52.022;5.534;2024-01-11T05:17:24;18.80;;;10.00;;
65045;SDS011;54657;52.022;5.534;2024-01-11T05:19:50;20.48;;;10.35;;
65045;SDS011;54657;52.022;5.534;2024-01-11T05:22:16;20.67;;;10.00;;
65045;SDS011;54657;52.022;5.534;2024-01-11T05:24:42;19.63;;;10.73;;
65045;SDS011;54657;52.022;5.534;2024-01-11T05:27:08;23.73;;;10.07;;
65045;SDS011;54657;52.022;5.534;2024-01-11T05:29:34;17.90;;;9.70;;
65045;SDS011;54657;52.022;5.534;2024-01-11T05:31:59;19.23;;;10.20;;
65045;SDS011;54657;52.022;5.534;2024-01-11T05:34:25;26.58;;;12.27;;
65045;SDS011;54657;52.022;5.534;2024-01-11T05:36:50;20.77;;;10.52;;
65045;SDS011;54657;52.022;5.534;2024-01-11T05:39:16;22.42;;;11.18;;
65045;SDS011;54657;52.022;5.534;2024-01-11T05:41:44;21.80;;;9.88;;
65045;SDS011;54657;52.022;5.534;2024-01-11T05:44:10;23.40;;;11.38;;
65045;SDS011;54657;52.022;5.534;2024-01-11T05:46:36;20.60;;;11.00;;
65045;SDS011;54657;52.022;5.534;2024-01-11T05:49:01;19.42;;;11.10;;
65045;SDS011;54657;52.022;5.534;2024-01-11T05:51:28;21.95;;;11.35;;
65045;SDS011;54657;52.022;5.534;2024-01-11T05:53:54;18.42;;;10.48;;
65045;SDS011;54657;52.022;5.534;2024-01-11T05:56:20;19.15;;;10.55;;
65045;SDS011;54657;52.022;5.534;2024-01-11T05:58:46;22.33;;;11.60;;
65045;SDS011;54657;52.022;5.534;2024-01-11T06:01:11;21.15;;;10.75;;
65045;SDS011;54657;52.022;5.534;2024-01-11T06:03:37;20.17;;;10.93;;
65045;SDS011;54657;52.022;5.534;2024-01-11T06:06:04;20.73;;;10.60;;
65045;SDS011;54657;52.022;5.534;2024-01-11T06:08:30;18.33;;;10.43;;
65045;SDS011;54657;52.022;5.534;2024-01-11T06:10:56;20.02;;;10.43;;
65045;SDS011;54657;52.022;5.534;2024-01-11T06:13:22;17.85;;;10.18;;
65045;SDS011;54657;52.022;5.534;2024-01-11T06:15:48;17.30;;;10.13;;
65045;SDS011;54657;52.022;5.534;2024-01-11T06:18:14;19.23;;;10.68;;
65045;SDS011;54657;52.022;5.534;2024-01-11T06:20:40;26.13;;;12.38;;
65045;SDS011;54657;52.022;5.534;2024-01-11T06:23:06;19.95;;;11.18;;
65045;SDS011;54657;52.022;5.534;2024-01-11T06:25:31;20.73;;;12.15;;
65045;SDS011;54657;52.022;5.534;2024-01-11T06:27:57;20.85;;;11.57;;
65045;SDS011;54657;52.022;5.534;2024-01-11T06:30:22;23.52;;;12.63;;
65045;SDS011;54657;52.022;5.534;2024-01-11T06:32:48;24.30;;;12.38;;
65045;SDS011;54657;52.022;5.534;2024-01-11T06:35:14;23.08;;;10.82;;
65045;SDS011;54657;52.022;5.534;2024-01-11T06:37:39;22.85;;;11.93;;
65045;SDS011;54657;52.022;5.534;2024-01-11T06:40:05;25.58;;;11.70;;
65045;SDS011;54657;52.022;5.534;2024-01-11T06:42:33;20.25;;;11.65;;
65045;SDS011;54657;52.022;5.534;2024-01-11T06:44:58;23.33;;;11.45;;
65045;SDS011;54657;52.022;5.534;2024-01-11T06:47:24;21.05;;;11.55;;
65045;SDS011;54657;52.022;5.534;2024-01-11T06:49:49;19.85;;;11.85;;
65045;SDS011;54657;52.022;5.534;2024-01-11T06:52:15;20.95;;;11.88;;
65045;SDS011;54657;52.022;5.534;2024-01-11T06:54:40;24.20;;;12.68;;
65045;SDS011;54657;52.022;5.534;2024-01-11T06:57:06;23.17;;;12.73;;
65045;SDS011;54657;52.022;5.534;2024-01-11T06:59:32;19.95;;;11.85;;
65045;SDS011;54657;52.022;5.534;2024-01-11T07:01:58;23.65;;;11.95;;
65045;SDS011;54657;52.022;5.534;2024-01-11T07:04:23;23.73;;;11.88;;
65045;SDS011;54657;52.022;5.534;2024-01-11T07:06:49;25.52;;;13.45;;
65045;SDS011;54657;52.022;5.534;2024-01-11T07:09:14;23.63;;;12.27;;
65045;SDS011;54657;52.022;5.534;2024-01-11T07:11:41;22.67;;;11.82;;
65045;SDS011;54657;52.022;5.534;2024-01-11T07:14:09;23.77;;;11.57;;
65045;SDS011;54657;52.022;5.534;2024-01-11T07:16:35;22.02;;;11.98;;
65045;SDS011;54657;52.022;5.534;2024-01-11T07:19:00;30.00;;;13.27;;
65045;SDS011;54657;52.022;5.534;2024-01-11T07:21:26;27.63;;;13.07;;
65045;SDS011;54657;52.022;5.534;2024-01-11T07:23:56;22.38;;;12.32;;
65045;SDS011;54657;52.022;5.534;2024-01-11T07:26:25;25.63;;;12.88;;
65045;SDS011;54657;52.022;5.534;2024-01-11T07:28:51;25.90;;;12.50;;
65045;SDS011;54657;52.022;5.534;2024-01-11T07:31:17;23.48;;;12.18;;
65045;SDS011;54657;52.022;5.534;2024-01-11T07:33:42;24.35;;;12.77;;
65045;SDS011;54657;52.022;5.534;2024-01-11T07:36:08;24.05;;;12.82;;
65045;SDS011;54657;52.022;5.534;2024-01-11T07:38:34;22.33;;;11.80;;
65045;SDS011;54657;52.022;5.534;2024-01-11T07:41:00;21.77;;;11.05;;
65045;SDS011;54657;52.022;5.534;2024-01-11T07:43:26;25.95;;;11.85;;
65045;SDS011;54657;52.022;5.534;2024-01-11T07:45:53;20.10;;;10.75;;
65045;SDS011;54657;52.022;5.534;2024-01-11T07:48:21;19.17;;;10.38;;
65045;SDS011;54657;52.022;5.534;2024-01-11T07:50:47;19.67;;;10.60;;
65045;SDS011;54657;52.022;5.534;2024-01-11T07:53:13;19.65;;;11.32;;
65045;SDS011;54657;52.022;5.534;2024-01-11T07:55:39;20.85;;;11.38;;
65045;SDS011;54657;52.022;5.534;2024-01-11T07:58:05;22.00;;;11.15;;
65045;SDS011;54657;52.022;5.534;2024-01-11T08:00:31;20.80;;;11.00;;
65045;SDS011;54657;52.022;5.534;2024-01-11T08:02:57;21.13;;;11.18;;
65045;SDS011;54657;52.022;5.534;2024-01-11T08:05:22;21.00;;;11.23;;
65045;SDS011;54657;52.022;5.534;2024-01-11T08:07:48;21.92;;;11.15;;
65045;SDS011;54657;52.022;5.534;2024-01-11T08:10:14;22.50;;;11.13;;
65045;SDS011;54657;52.022;5.534;2024-01-11T08:12:39;22.67;;;11.95;;
65045;SDS011;54657;52.022;5.534;2024-01-11T08:15:05;20.92;;;11.18;;
65045;SDS011;54657;52.022;5.534;2024-01-11T08:17:31;21.13;;;12.07;;
65045;SDS011;54657;52.022;5.534;2024-01-11T08:19:56;25.38;;;12.13;;
65045;SDS011;54657;52.022;5.534;2024-01-11T08:22:22;25.25;;;13.35;;
65045;SDS011;54657;52.022;5.534;2024-01-11T08:24:48;28.58;;;14.70;;
65045;SDS011;54657;52.022;5.534;2024-01-11T08:27:14;28.33;;;14.55;;
65045;SDS011;54657;52.022;5.534;2024-01-11T08:29:42;26.00;;;13.13;;
65045;SDS011;54657;52.022;5.534;2024-01-11T08:32:08;23.15;;;12.50;;
65045;SDS011;54657;52.022;5.534;2024-01-11T08:34:33;25.10;;;13.65;;
65045;SDS011;54657;52.022;5.534;2024-01-11T08:36:59;26.77;;;14.40;;
65045;SDS011;54657;52.022;5.534;2024-01-11T08:39:25;27.17;;;14.95;;
65045;SDS011;54657;52.022;5.534;2024-01-11T08:41:50;27.85;;;15.35;;
65045;SDS011;54657;52.022;5.534;2024-01-11T08:44:17;28.58;;;15.10;;
65045;SDS011;54657;52.022;5.534;2024-01-11T08:46:43;31.63;;;15.57;;
65045;SDS011;54657;52.022;5.534;2024-01-11T08:49:09;26.20;;;14.02;;
65045;SDS011;54657;52.022;5.534;2024-01-11T08:51:34;27.20;;;15.35;;
65045;SDS011;54657;52.022;5.534;2024-01-11T08:54:00;31.95;;;15.35;;
65045;SDS011;54657;52.022;5.534;2024-01-11T08:56:26;28.17;;;15.40;;
65045;SDS011;54657;52.022;5.534;2024-01-11T08:58:52;30.70;;;16.15;;
65045;SDS011;54657;52.022;5.534;2024-01-11T09:01:18;31.48;;;16.13;;
65045;SDS011;54657;52.022;5.534;2024-01-11T09:03:44;27.30;;;14.68;;
65045;SDS011;54657;52.022;5.534;2024-01-11T09:06:09;31.20;;;16.13;;
65045;SDS011;54657;52.022;5.534;2024-01-11T09:08:36;28.27;;;15.00;;
65045;SDS011;54657;52.022;5.534;2024-01-11T09:11:01;28.00;;;14.85;;
65045;SDS011;54657;52.022;5.534;2024-01-11T09:13:28;29.10;;;15.85;;
65045;SDS011;54657;52.022;5.534;2024-01-11T09:15:54;31.98;;;15.32;;
65045;SDS011;54657;52.022;5.534;2024-01-11T09:18:20;28.38;;;14.43;;
65045;SDS011;54657;52.022;5.534;2024-01-11T09:20:46;30.80;;;16.20;;
65045;SDS011;54657;52.022;5.534;2024-01-11T09:23:12;31.02;;;16.85;;
65045;SDS011;54657;52.022;5.534;2024-01-11T09:25:38;28.52;;;16.05;;
65045;SDS011;54657;52.022;5.534;2024-01-11T09:28:04;24.08;;;14.52;;
65045;SDS011;54657;52.022;5.534;2024-01-11T09:30:30;26.95;;;13.07;;
65045;SDS011;54657;52.022;5.534;2024-01-11T09:32:55;31.67;;;15.48;;
65045;SDS011;54657;52.022;5.534;2024-01-11T09:35:21;34.97;;;17.52;;
65045;SDS011;54657;52.022;5.534;2024-01-11T09:37:48;29.80;;;14.38;;
65045;SDS011;54657;52.022;5.534;2024-01-11T09:40:14;27.95;;;15.25;;
65045;SDS011;54657;52.022;5.534;2024-01-11T09:42:41;28.17;;;13.82;;
65045;SDS011;54657;52.022;5.534;2024-01-11T09:45:07;31.17;;;14.32;;
65045;SDS011;54657;52.022;5.534;2024-01-11T09:47:38;32.92;;;15.57;;
65045;SDS011;54657;52.022;5.534;2024-01-11T09:50:05;26.77;;;13.90;;
65045;SDS011;54657;52.022;5.534;2024-01-11T09:52:32;30.45;;;15.45;;
65045;SDS011;54657;52.022;5.534;2024-01-11T09:54:58;27.05;;;14.07;;
65045;SDS011;54657;52.022;5.534;2024-01-11T09:57:26;27.48;;;13.85;;
65045;SDS011;54657;52.022;5.534;2024-01-11T09:59:56;27.00;;;13.35;;
65045;SDS011;54657;52.022;5.534;2024-01-11T10:02:25;27.08;;;12.65;;
65045;SDS011;54657;52.022;5.534;2024-01-11T10:04:54;21.95;;;12.45;;
65045;SDS011;54657;52.022;5.534;2024-01-11T10:07:23;24.92;;;12.20;;
65045;SDS011;54657;52.022;5.534;2024-01-11T10:09:52;24.80;;;11.30;;
65045;SDS011;54657;52.022;5.534;2024-01-11T10:12:18;21.75;;;11.77;;
65045;SDS011;54657;52.022;5.534;2024-01-11T10:14:45;18.85;;;9.63;;
65045;SDS011;54657;52.022;5.534;2024-01-11T10:17:12;17.77;;;9.50;;
65045;SDS011;54657;52.022;5.534;2024-01-11T10:19:37;18.00;;;8.90;;
65045;SDS011;54657;52.022;5.534;2024-01-11T10:22:03;17.98;;;9.07;;
65045;SDS011;54657;52.022;5.534;2024-01-11T10:24:29;17.02;;;8.32;;
65045;SDS011;54657;52.022;5.534;2024-01-11T10:26:55;19.83;;;8.98;;
65045;SDS011;54657;52.022;5.534;2024-01-11T10:29:22;16.75;;;8.95;;
65045;SDS011;54657;52.022;5.534;2024-01-11T10:31:48;17.65;;;9.15;;
65045;SDS011;54657;52.022;5.534;2024-01-11T10:34:15;19.75;;;9.27;;
65045;SDS011;54657;52.022;5.534;2024-01-11T10:36:41;22.73;;;10.68;;
65045;SDS011;54657;52.022;5.534;2024-01-11T10:39:08;19.33;;;9.50;;
65045;SDS011;54657;52.022;5.534;2024-01-11T10:41:41;16.98;;;7.75;;
65045;SDS011;54657;52.022;5.534;2024-01-11T10:44:19;18.13;;;8.20;;
65045;SDS011;54657;52.022;5.534;2024-01-11T10:46:49;22.20;;;9.20;;
65045;SDS011;54657;52.022;5.534;2024-01-11T10:49:16;22.73;;;9.13;;
65045;SDS011;54657;52.022;5.534;2024-01-11T10:51:45;22.40;;;9.43;;
65045;SDS011;54657;52.022;5.534;2024-01-11T10:54:24;20.08;;;9.23;;
65045;SDS011;54657;52.022;5.534;2024-01-11T10:56:52;21.45;;;9.32;;
65045;SDS011;54657;52.022;5.534;2024-01-11T10:59:19;20.08;;;9.07;;
65045;SDS011;54657;52.022;5.534;2024-01-11T11:01:49;27.35;;;10.40;;
65045;SDS011;54657;52.022;5.534;2024-01-11T11:04:18;20.83;;;8.77;;
65045;SDS011;54657;52.022;5.534;2024-01-11T11:06:49;20.75;;;8.85;;
65045;SDS011;54657;52.022;5.534;2024-01-11T11:09:15;22.33;;;9.65;;
65045;SDS011;54657;52.022;5.534;2024-01-11T11:11:43;24.10;;;9.65;;
65045;SDS011;54657;52.022;5.534;2024-01-11T11:14:10;25.30;;;10.55;;
65045;SDS011;54657;52.022;5.534;2024-01-11T11:16:39;29.52;;;12.30;;
65045;SDS011;54657;52.022;5.534;2024-01-11T11:19:05;31.83;;;13.80;;
65045;SDS011;54657;52.022;5.534;2024-01-11T11:21:31;27.25;;;12.65;;
65045;SDS011;54657;52.022;5.534;2024-01-11T11:23:57;26.95;;;12.88;;
65045;SDS011;54657;52.022;5.534;2024-01-11T11:26:23;25.38;;;11.48;;
65045;SDS011;54657;52.022;5.534;2024-01-11T11:28:52;28.52;;;13.25;;
65045;SDS011;54657;52.022;5.534;2024-01-11T11:31:36;28.55;;;12.95;;
65045;SDS011;54657;52.022;5.534;2024-01-11T11:34:11;24.58;;;10.63;;
65045;SDS011;54657;52.022;5.534;2024-01-11T11:36:36;28.33;;;11.15;;
65045;SDS011;54657;52.022;5.534;2024-01-11T11:39:04;23.52;;;10.93;;
65045;SDS011;54657;52.022;5.534;2024-01-11T11:41:30;27.42;;;11.52;;
65045;SDS011;54657;52.022;5.534;2024-01-11T11:44:03;27.25;;;10.73;;
65045;SDS011;54657;52.022;5.534;2024-01-11T11:46:29;19.85;;;8.88;;
65045;SDS011;54657;52.022;5.534;2024-01-11T11:48:56;27.50;;;11.00;;
65045;SDS011;54657;52.022;5.534;2024-01-11T11:51:23;24.45;;;10.23;;
65045;SDS011;54657;52.022;5.534;2024-01-11T11:53:49;27.05;;;10.10;;
65045;SDS011;54657;52.022;5.534;2024-01-11T11:56:17;25.77;;;10.30;;
65045;SDS011;54657;52.022;5.534;2024-01-11T11:58:44;23.08;;;11.23;;
65045;SDS011;54657;52.022;5.534;2024-01-11T12:01:11;24.17;;;10.63;;
65045;SDS011;54657;52.022;5.534;2024-01-11T12:03:37;25.58;;;10.77;;
65045;SDS011;54657;52.022;5.534;2024-01-11T12:06:05;25.27;;;11.23;;
65045;SDS011;54657;52.022;5.534;2024-01-11T12:08:33;28.55;;;11.10;;
65045;SDS011;54657;52.022;5.534;2024-01-11T12:10:59;23.98;;;11.02;;
65045;SDS011;54657;52.022;5.534;2024-01-11T12:13:25;22.95;;;10.35;;
65045;SDS011;54657;52.022;5.534;2024-01-11T12:15:51;24.50;;;10.55;;
65045;SDS011;54657;52.022;5.534;2024-01-11T12:18:17;25.20;;;11.18;;
65045;SDS011;54657;52.022;5.534;2024-01-11T12:20:42;28.35;;;11.60;;
65045;SDS011;54657;52.022;5.534;2024-01-11T12:23:08;23.83;;;10.88;;
65045;SDS011;54657;52.022;5.534;2024-01-11T12:25:34;24.67;;;10.73;;
65045;SDS011;54657;52.022;5.534;2024-01-11T12:28:01;23.73;;;11.20;;
65045;SDS011;54657;52.022;5.534;2024-01-11T12:30:26;23.88;;;10.82;;
65045;SDS011;54657;52.022;5.534;2024-01-11T12:32:53;22.23;;;10.27;;
65045;SDS011;54657;52.022;5.534;2024-01-11T12:35:19;23.10;;;10.90;;
65045;SDS011;54657;52.022;5.534;2024-01-11T12:37:52;26.45;;;10.57;;
65045;SDS011;54657;52.022;5.534;2024-01-11T12:40:19;20.13;;;9.30;;
65045;SDS011;54657;52.022;5.534;2024-01-11T12:42:44;20.00;;;9.18;;
65045;SDS011;54657;52.022;5.534;2024-01-11T12:45:10;24.30;;;10.30;;
65045;SDS011;54657;52.022;5.534;2024-01-11T12:47:36;20.60;;;9.88;;
65045;SDS011;54657;52.022;5.534;2024-01-11T12:50:02;26.35;;;10.63;;
65045;SDS011;54657;52.022;5.534;2024-01-11T12:52:28;20.90;;;10.38;;
65045;SDS011;54657;52.022;5.534;2024-01-11T12:54:55;24.10;;;10.77;;
65045;SDS011;54657;52.022;5.534;2024-01-11T12:57:21;25.35;;;10.45;;
65045;SDS011;54657;52.022;5.534;2024-01-11T12:59:47;23.55;;;10.95;;
65045;SDS011;54657;52.022;5.534;2024-01-11T13:02:13;22.25;;;10.52;;
65045;SDS011;54657;52.022;5.534;2024-01-11T13:04:40;22.67;;;10.98;;
65045;SDS011;54657;52.022;5.534;2024-01-11T13:07:07;19.85;;;9.43;;
65045;SDS011;54657;52.022;5.534;2024-01-11T13:09:34;22.35;;;10.60;;
65045;SDS011;54657;52.022;5.534;2024-01-11T13:12:00;21.02;;;9.68;;
65045;SDS011;54657;52.022;5.534;2024-01-11T13:14:25;21.08;;;9.63;;
65045;SDS011;54657;52.022;5.534;2024-01-11T13:16:51;21.90;;;9.52;;
65045;SDS011;54657;52.022;5.534;2024-01-11T13:19:17;21.05;;;8.90;;
65045;SDS011;54657;52.022;5.534;2024-01-11T13:21:42;19.65;;;9.23;;
65045;SDS011;54657;52.022;5.534;2024-01-11T13:24:08;18.20;;;9.55;;
65045;SDS011;54657;52.022;5.534;2024-01-11T13:26:35;22.60;;;9.75;;
65045;SDS011;54657;52.022;5.534;2024-01-11T13:29:04;17.27;;;8.82;;
65045;SDS011;54657;52.022;5.534;2024-01-11T13:31:30;18.45;;;8.73;;
65045;SDS011;54657;52.022;5.534;2024-01-11T13:33:56;16.35;;;8.40;;
65045;SDS011;54657;52.022;5.534;2024-01-11T13:36:22;17.70;;;7.97;;
65045;SDS011;54657;52.022;5.534;2024-01-11T13:38:48;18.95;;;9.10;;
65045;SDS011;54657;52.022;5.534;2024-01-11T13:41:15;16.67;;;8.50;;
65045;SDS011;54657;52.022;5.534;2024-01-11T13:43:42;17.90;;;8.98;;
65045;SDS011;54657;52.022;5.534;2024-01-11T13:46:08;16.40;;;7.97;;
65045;SDS011;54657;52.022;5.534;2024-01-11T13:48:34;28.30;;;10.85;;
65045;SDS011;54657;52.022;5.534;2024-01-11T13:50:59;16.75;;;9.15;;
65045;SDS011;54657;52.022;5.534;2024-01-11T13:53:25;18.60;;;9.13;;
65045;SDS011;54657;52.022;5.534;2024-01-11T13:55:51;15.45;;;8.57;;
65045;SDS011;54657;52.022;5.534;2024-01-11T13:58:17;23.75;;;11.68;;
65045;SDS011;54657;52.022;5.534;2024-01-11T14:00:43;19.38;;;11.52;;
65045;SDS011;54657;52.022;5.534;2024-01-11T14:03:09;20.30;;;9.93;;
65045;SDS011;54657;52.022;5.534;2024-01-11T14:05:35;24.20;;;13.20;;
65045;SDS011;54657;52.022;5.534;2024-01-11T14:08:02;18.63;;;10.38;;
65045;SDS011;54657;52.022;5.534;2024-01-11T14:10:30;18.58;;;9.75;;
65045;SDS011;54657;52.022;5.534;2024-01-11T14:12:57;20.67;;;10.82;;
65045;SDS011;54657;52.022;5.534;2024-01-11T14:15:26;19.95;;;9.98;;
65045;SDS011;54657;52.022;5.534;2024-01-11T14:17:52;19.65;;;10.80;;
65045;SDS011;54657;52.022;5.534;2024-01-11T14:20:18;25.73;;;15.30;;
65045;SDS011;54657;52.022;5.534;2024-01-11T14:22:44;27.85;;;17.23;;
65045;SDS011;54657;52.022;5.534;2024-01-11T14:25:17;19.60;;;11.20;;